Time;durP1;ratioP1;P1;durP2;ratioP2;P2;SDS_P1;SDS_P2;PMS_P1;PMS_P2;Temp;Humidity;BMP_temperature;BMP_pressure;BME280_temperature;BME280_humidity;BME280_pressure;Samples;Min_cycle;Max_cycle;Signal;HPM_P1;HPM_P2
2023/04/22 00:01:42;;;;;;;7.78;6.68;;;12.60;77.20;;;;;;5064525;28;20479;-76
2023/04/22 00:04:08;;;;;;;7.13;5.63;;;12.50;77.10;;;;;;5047564;28;20040;-76
2023/04/22 00:06:34;;;;;;;8.18;5.78;;;12.50;77.10;;;;;;5051662;28;20109;-76
2023/04/22 00:09:00;;;;;;;7.32;5.70;;;12.50;77.10;;;;;;5057085;28;20080;-76
2023/04/22 00:11:26;;;;;;;6.13;5.43;;;12.40;76.90;;;;;;5042407;28;20090;-76
2023/04/22 00:13:52;;;;;;;6.88;4.85;;;12.30;76.90;;;;;;5045065;28;20124;-76
2023/04/22 00:16:18;;;;;;;7.43;5.60;;;12.30;77.00;;;;;;5065366;28;20450;-76
2023/04/22 00:18:43;;;;;;;6.40;5.47;;;12.20;77.00;;;;;;5057271;28;20075;-76
2023/04/22 00:21:09;;;;;;;6.85;5.85;;;12.20;77.10;;;;;;5024336;28;20099;-76
2023/04/22 00:23:35;;;;;;;6.18;5.15;;;12.10;77.20;;;;;;5066344;28;20036;-76
2023/04/22 00:26:01;;;;;;;7.85;5.90;;;12.00;77.30;;;;;;5056656;28;20043;-76
2023/04/22 00:28:27;;;;;;;5.85;4.97;;;12.00;77.40;;;;;;5032098;28;20131;-76
2023/04/22 00:30:53;;;;;;;6.28;5.30;;;11.90;77.50;;;;;;5057015;28;20119;-76
2023/04/22 00:33:18;;;;;;;7.75;5.97;;;11.90;77.60;;;;;;5043588;28;20028;-75
2023/04/22 00:35:45;;;;;;;8.07;5.03;;;11.80;77.60;;;;;;5078939;28;20071;-76
2023/04/22 00:38:11;;;;;;;5.60;5.03;;;11.80;77.60;;;;;;5076650;28;20153;-76
2023/04/22 00:40:37;;;;;;;7.07;6.00;;;11.80;77.40;;;;;;5043316;28;20126;-76
2023/04/22 00:43:03;;;;;;;8.20;6.28;;;11.70;77.40;;;;;;5076627;28;20082;-76
2023/04/22 00:45:30;;;;;;;7.70;6.70;;;11.60;77.70;;;;;;5067307;28;20471;-76
2023/04/22 00:47:56;;;;;;;8.20;6.93;;;11.50;78.30;;;;;;5076101;28;20044;-76
2023/04/22 00:50:22;;;;;;;9.52;7.35;;;11.40;78.60;;;;;;5091431;28;20036;-76
2023/04/22 00:52:48;;;;;;;9.57;7.88;;;11.40;79.00;;;;;;5076771;28;20124;-76
2023/04/22 00:55:14;;;;;;;8.18;7.30;;;11.30;79.30;;;;;;5084351;28;20483;-76
2023/04/22 00:57:41;;;;;;;8.27;6.70;;;11.20;79.50;;;;;;5060048;28;20192;-76
2023/04/22 01:00:08;;;;;;;7.95;6.10;;;11.20;79.40;;;;;;5058951;28;20047;-76
2023/04/22 01:02:37;;;;;;;7.88;6.45;;;11.10;79.30;;;;;;5060247;28;20328;-76
2023/04/22 01:05:03;;;;;;;7.18;5.78;;;11.00;79.20;;;;;;5063347;28;20032;-76
2023/04/22 01:07:29;;;;;;;7.57;6.35;;;11.00;79.30;;;;;;5059808;28;20066;-76
2023/04/22 01:09:55;;;;;;;8.07;7.22;;;10.90;79.60;;;;;;5059652;28;20539;-76
2023/04/22 01:12:21;;;;;;;8.80;6.63;;;10.90;79.60;;;;;;5085624;28;20369;-76
2023/04/22 01:14:47;;;;;;;6.72;6.03;;;10.80;79.50;;;;;;5070616;28;20093;-76
2023/04/22 01:17:15;;;;;;;7.15;6.25;;;10.80;79.60;;;;;;5093271;28;20118;-76
2023/04/22 01:19:42;;;;;;;9.85;8.10;;;10.70;79.70;;;;;;5076590;28;20040;-76
2023/04/22 01:22:11;;;;;;;11.45;9.63;;;10.70;79.90;;;;;;5056446;28;20051;-77
2023/04/22 01:24:37;;;;;;;12.35;9.82;;;10.60;80.30;;;;;;5089642;28;20109;-77
2023/04/22 01:27:03;;;;;;;14.45;10.95;;;10.60;80.90;;;;;;5077389;28;20052;-77
2023/04/22 01:29:32;;;;;;;12.32;10.10;;;10.50;81.50;;;;;;5059517;28;20554;-77
2023/04/22 01:31:58;;;;;;;12.73;10.70;;;10.40;81.80;;;;;;5076076;28;20552;-77
2023/04/22 01:34:23;;;;;;;13.00;10.55;;;10.40;82.00;;;;;;5058680;28;20036;-76
2023/04/22 01:36:50;;;;;;;12.00;10.25;;;10.40;82.40;;;;;;5042634;28;20093;-77
2023/04/22 01:39:16;;;;;;;11.88;10.50;;;10.30;82.70;;;;;;5076007;28;20083;-77
2023/04/22 01:41:42;;;;;;;12.35;11.07;;;10.30;82.90;;;;;;5042667;28;20040;-77
2023/04/22 01:44:08;;;;;;;9.63;8.30;;;10.30;83.00;;;;;;5068024;28;20066;-76
2023/04/22 01:46:33;;;;;;;9.65;8.50;;;10.20;83.20;;;;;;5040095;28;20064;-76
2023/04/22 01:48:59;;;;;;;10.15;7.95;;;10.20;83.30;;;;;;5042757;28;20119;-76
2023/04/22 01:51:25;;;;;;;11.90;10.43;;;10.20;83.40;;;;;;5075424;28;20032;-77
2023/04/22 01:53:51;;;;;;;9.07;8.18;;;10.20;83.40;;;;;;5044414;28;20037;-77
2023/04/22 01:56:17;;;;;;;11.43;9.57;;;10.30;83.40;;;;;;5058738;28;20064;-78
2023/04/22 01:58:42;;;;;;;19.15;8.82;;;10.30;83.30;;;;;;5058799;28;20155;-77
2023/04/22 02:01:10;;;;;;;9.77;7.90;;;10.30;83.20;;;;;;5075958;28;20059;-77
2023/04/22 02:03:35;;;;;;;10.30;9.05;;;10.30;83.00;;;;;;5074428;28;20032;-77
2023/04/22 02:06:02;;;;;;;10.75;9.45;;;10.20;82.70;;;;;;5072498;28;20094;-77
2023/04/22 02:08:27;;;;;;;12.13;10.43;;;10.20;82.70;;;;;;5092111;28;20356;-77
2023/04/22 02:10:53;;;;;;;11.38;10.18;;;10.20;82.70;;;;;;5075182;28;20047;-77
2023/04/22 02:13:19;;;;;;;12.57;10.90;;;10.20;82.80;;;;;;5075182;28;20087;-77
2023/04/22 02:15:44;;;;;;;11.00;9.85;;;10.20;82.90;;;;;;5055052;28;20032;-77
2023/04/22 02:18:10;;;;;;;10.57;9.48;;;10.10;83.00;;;;;;5025174;28;20415;-77
2023/04/22 02:20:36;;;;;;;12.90;10.88;;;10.10;83.00;;;;;;5054960;28;20051;-77
2023/04/22 02:23:03;;;;;;;10.82;9.68;;;10.10;83.10;;;;;;5040207;28;20101;-78
2023/04/22 02:25:29;;;;;;;8.07;7.28;;;10.10;83.20;;;;;;5074748;28;20039;-77
2023/04/22 02:27:55;;;;;;;11.52;9.57;;;10.10;83.30;;;;;;5091932;28;20512;-77
2023/04/22 02:30:21;;;;;;;7.35;6.53;;;10.10;83.30;;;;;;5091939;28;20032;-77
2023/04/22 02:32:47;;;;;;;8.13;6.40;;;10.10;83.30;;;;;;5074740;28;20616;-77
2023/04/22 02:35:12;;;;;;;8.93;7.03;;;10.10;83.30;;;;;;5058567;28;20115;-77
2023/04/22 02:37:38;;;;;;;10.77;8.52;;;10.10;83.10;;;;;;5057877;28;20055;-77
2023/04/22 02:40:06;;;;;;;8.98;7.85;;;10.10;83.00;;;;;;5058155;28;20079;-77
2023/04/22 02:42:32;;;;;;;7.35;6.65;;;10.20;82.90;;;;;;5062863;28;20043;-77
2023/04/22 02:44:57;;;;;;;8.43;7.43;;;10.10;82.60;;;;;;5076888;28;20044;-77
2023/04/22 02:47:23;;;;;;;7.70;6.30;;;10.20;82.40;;;;;;5056137;28;20051;-77
2023/04/22 02:49:49;;;;;;;10.57;8.18;;;10.20;82.30;;;;;;5074255;28;20040;-77
2023/04/22 02:52:14;;;;;;;10.80;8.82;;;10.20;82.20;;;;;;5057902;28;20184;-77
2023/04/22 02:54:40;;;;;;;7.75;6.95;;;10.20;82.10;;;;;;5057216;28;20101;-77
2023/04/22 02:57:06;;;;;;;9.13;8.23;;;10.20;82.10;;;;;;5037614;28;20040;-77
2023/04/22 02:59:33;;;;;;;8.35;7.53;;;10.10;82.00;;;;;;5037768;28;20072;-77
2023/04/22 03:01:59;;;;;;;8.57;7.07;;;10.10;82.00;;;;;;5053655;28;20080;-77
2023/04/22 03:04:24;;;;;;;8.10;6.70;;;10.10;82.10;;;;;;5066507;28;20086;-76
2023/04/22 03:06:51;;;;;;;8.73;7.38;;;10.10;82.10;;;;;;5068891;28;20036;-76
2023/04/22 03:09:17;;;;;;;9.88;8.00;;;10.10;81.90;;;;;;5037618;28;20040;-77
2023/04/22 03:11:43;;;;;;;11.10;8.60;;;10.10;81.90;;;;;;5038051;28;20036;-76
2023/04/22 03:14:08;;;;;;;6.55;5.78;;;10.10;81.90;;;;;;5047269;28;20553;-77
2023/04/22 03:16:35;;;;;;;6.50;5.30;;;10.10;81.90;;;;;;5079269;28;20047;-77
2023/04/22 03:19:00;;;;;;;6.93;5.40;;;10.10;81.80;;;;;;5074112;28;20399;-76
2023/04/22 03:21:27;;;;;;;6.53;5.25;;;10.10;81.60;;;;;;5057581;28;20036;-77
2023/04/22 03:23:53;;;;;;;6.10;5.40;;;10.10;81.50;;;;;;5023753;28;20036;-77
2023/04/22 03:26:19;;;;;;;7.65;5.38;;;10.10;81.30;;;;;;5074952;28;20067;-76
2023/04/22 03:28:44;;;;;;;6.70;4.88;;;10.10;81.10;;;;;;5037815;28;20087;-76
2023/04/22 03:31:10;;;;;;;6.82;5.20;;;10.20;81.00;;;;;;5073952;28;20040;-76
2023/04/22 03:33:36;;;;;;;5.80;5.20;;;10.10;80.80;;;;;;5083443;28;20048;-76
2023/04/22 03:36:02;;;;;;;5.90;4.97;;;10.20;80.60;;;;;;5074064;28;20032;-76
2023/04/22 03:38:27;;;;;;;5.53;4.45;;;10.20;80.30;;;;;;5073528;28;20400;-77
2023/04/22 03:40:53;;;;;;;6.07;4.28;;;10.20;80.10;;;;;;5057223;28;20097;-77
2023/04/22 03:43:19;;;;;;;5.20;4.25;;;10.20;79.80;;;;;;5067445;28;20123;-76
2023/04/22 03:45:44;;;;;;;4.30;3.90;;;10.20;79.50;;;;;;5057149;28;20048;-77
2023/04/22 03:48:10;;;;;;;4.22;3.00;;;10.20;79.20;;;;;;5057253;28;20037;-77
2023/04/22 03:50:36;;;;;;;22.10;4.65;;;10.20;78.80;;;;;;5074192;28;20042;-77
2023/04/22 03:53:02;;;;;;;5.85;3.38;;;10.20;77.80;;;;;;5040669;28;20067;-77
2023/04/22 03:55:27;;;;;;;7.47;3.42;;;10.20;76.90;;;;;;5085784;28;20094;-77
2023/04/22 03:57:53;;;;;;;4.72;3.45;;;10.10;76.40;;;;;;5046028;28;20036;-77
2023/04/22 04:00:19;;;;;;;3.85;3.00;;;10.00;76.40;;;;;;5057197;28;20032;-77
2023/04/22 04:02:45;;;;;;;6.80;4.75;;;10.00;76.90;;;;;;5073986;28;20040;-77
2023/04/22 04:05:10;;;;;;;7.00;6.30;;;10.00;77.00;;;;;;5073760;28;20138;-77
2023/04/22 04:07:36;;;;;;;5.90;5.03;;;9.90;77.00;;;;;;5072447;28;20044;-77
2023/04/22 04:10:03;;;;;;;9.98;8.35;;;9.80;77.30;;;;;;5090066;28;20072;-77
2023/04/22 04:12:29;;;;;;;6.88;6.03;;;9.80;78.00;;;;;;5073156;28;20479;-77
2023/04/22 04:14:54;;;;;;;6.63;5.70;;;9.80;78.60;;;;;;5076398;28;20040;-76
2023/04/22 04:17:24;;;;;;;5.78;4.90;;;9.80;79.00;;;;;;5036556;28;20506;-77
2023/04/22 04:19:53;;;;;;;4.57;3.83;;;9.80;79.20;;;;;;5050261;28;20044;-77
2023/04/22 04:22:20;;;;;;;6.05;4.93;;;9.80;79.10;;;;;;5063435;28;20192;-76
2023/04/22 04:24:46;;;;;;;4.75;3.85;;;9.80;79.10;;;;;;5059543;28;20044;-77
2023/04/22 04:27:12;;;;;;;4.75;4.22;;;9.70;79.00;;;;;;5061904;28;20049;-77
2023/04/22 04:29:40;;;;;;;5.15;4.32;;;9.80;78.90;;;;;;5036933;28;20106;-77
2023/04/22 04:32:09;;;;;;;4.75;4.18;;;9.70;78.80;;;;;;5042501;28;20036;-77
2023/04/22 04:34:36;;;;;;;6.32;4.55;;;9.80;78.80;;;;;;5063557;28;20044;-77
2023/04/22 04:37:02;;;;;;;4.95;3.85;;;9.70;78.70;;;;;;5072611;28;20041;-77
2023/04/22 04:39:28;;;;;;;5.82;4.50;;;9.80;78.80;;;;;;5023822;28;20128;-76
2023/04/22 04:41:57;;;;;;;7.18;5.40;;;9.80;78.70;;;;;;5057421;28;20490;-76
2023/04/22 04:44:25;;;;;;;5.13;4.63;;;9.80;78.60;;;;;;5049217;28;20063;-76
2023/04/22 04:46:51;;;;;;;5.15;4.40;;;9.80;78.60;;;;;;5053754;28;20373;-76
2023/04/22 04:49:17;;;;;;;5.43;4.93;;;9.80;78.40;;;;;;5041278;28;20044;-76
2023/04/22 04:51:42;;;;;;;4.40;3.92;;;9.80;77.90;;;;;;5061250;28;20035;-76
2023/04/22 04:54:08;;;;;;;4.75;4.25;;;9.80;77.40;;;;;;5079519;28;20047;-76
2023/04/22 04:56:34;;;;;;;4.18;3.78;;;9.70;76.90;;;;;;5057458;28;20064;-77
2023/04/22 04:59:00;;;;;;;4.03;3.53;;;9.80;76.80;;;;;;5058040;28;20040;-77
2023/04/22 05:01:25;;;;;;;4.95;3.97;;;9.70;76.70;;;;;;5069714;28;20036;-77
2023/04/22 05:03:51;;;;;;;5.47;4.35;;;9.70;76.80;;;;;;5058360;28;20045;-77
2023/04/22 05:06:17;;;;;;;4.72;3.83;;;9.70;76.90;;;;;;5081575;28;20521;-77
2023/04/22 05:08:42;;;;;;;5.95;3.97;;;9.70;77.10;;;;;;5048371;28;20043;-77
2023/04/22 05:11:08;;;;;;;4.28;3.70;;;9.70;77.20;;;;;;5077948;28;20036;-77
2023/04/22 05:13:34;;;;;;;4.10;3.47;;;9.70;77.20;;;;;;5044354;28;20540;-77
2023/04/22 05:15:59;;;;;;;5.25;4.63;;;9.70;77.20;;;;;;5070826;28;20063;-77
2023/04/22 05:18:25;;;;;;;4.22;3.65;;;9.70;77.20;;;;;;5097746;28;20043;-77
2023/04/22 05:20:51;;;;;;;5.28;3.78;;;9.70;77.10;;;;;;5064033;28;20058;-77
2023/04/22 05:23:16;;;;;;;4.60;4.05;;;9.70;77.00;;;;;;5080637;28;20043;-77
2023/04/22 05:25:42;;;;;;;5.35;4.85;;;9.70;76.90;;;;;;5080862;28;20036;-77
2023/04/22 05:28:08;;;;;;;6.40;5.30;;;9.70;76.80;;;;;;5078925;28;20145;-77
2023/04/22 05:30:34;;;;;;;6.47;5.78;;;9.70;76.90;;;;;;5057302;28;20037;-77
2023/04/22 05:32:59;;;;;;;7.80;6.78;;;9.70;77.00;;;;;;5048537;28;20031;-77
2023/04/22 05:35:26;;;;;;;9.10;7.63;;;9.60;77.00;;;;;;5075551;28;20032;-77
2023/04/22 05:37:51;;;;;;;9.57;8.15;;;9.60;77.40;;;;;;5045849;28;20049;-77
2023/04/22 05:40:17;;;;;;;8.82;7.93;;;9.60;77.80;;;;;;5057315;28;20113;-77
2023/04/22 05:42:43;;;;;;;7.30;6.55;;;9.60;78.20;;;;;;5042132;28;20491;-77
2023/04/22 05:45:09;;;;;;;8.43;6.53;;;9.50;78.60;;;;;;5061983;28;20040;-77
2023/04/22 05:47:35;;;;;;;7.47;6.63;;;9.50;78.90;;;;;;5064850;28;20040;-77
2023/04/22 05:50:00;;;;;;;7.72;6.90;;;9.60;79.30;;;;;;5065321;28;20495;-77
2023/04/22 05:52:26;;;;;;;8.73;7.50;;;9.60;79.50;;;;;;5080509;28;20066;-77
2023/04/22 05:54:52;;;;;;;8.73;7.55;;;9.60;79.70;;;;;;5063479;28;20483;-77
2023/04/22 05:57:17;;;;;;;8.63;7.57;;;9.60;80.00;;;;;;5079706;28;20035;-77
2023/04/22 05:59:43;;;;;;;9.65;8.65;;;9.70;80.30;;;;;;5076142;28;20123;-78
2023/04/22 06:02:09;;;;;;;13.00;11.70;;;9.70;80.60;;;;;;5040005;28;20044;-77
2023/04/22 06:04:34;;;;;;;11.00;9.82;;;9.70;80.90;;;;;;5070521;28;20043;-77
2023/04/22 06:07:00;;;;;;;10.45;9.23;;;9.80;81.20;;;;;;5061854;28;20040;-77
2023/04/22 06:09:26;;;;;;;9.18;8.13;;;9.80;81.40;;;;;;5062881;28;20122;-77
2023/04/22 06:11:51;;;;;;;11.52;10.38;;;9.80;81.70;;;;;;5068996;28;20365;-77
2023/04/22 06:14:17;;;;;;;12.02;10.82;;;9.80;81.90;;;;;;5043678;28;20514;-77
2023/04/22 06:16:43;;;;;;;11.65;10.45;;;9.90;82.20;;;;;;5043576;28;20173;-77
2023/04/22 06:19:09;;;;;;;13.93;11.98;;;9.90;82.40;;;;;;5056396;28;20070;-77
2023/04/22 06:21:36;;;;;;;11.90;10.70;;;10.00;82.60;;;;;;5040021;28;20051;-77
2023/04/22 06:24:04;;;;;;;13.85;12.38;;;10.00;82.80;;;;;;5075303;28;20041;-78
2023/04/22 06:26:30;;;;;;;13.07;11.68;;;10.10;83.10;;;;;;5056158;28;20040;-76
2023/04/22 06:28:56;;;;;;;17.40;14.52;;;10.10;83.40;;;;;;5074368;28;20044;-78
2023/04/22 06:31:22;;;;;;;15.52;13.77;;;10.20;83.70;;;;;;5059470;28;20036;-82
2023/04/22 06:33:47;;;;;;;14.65;13.15;;;10.30;84.00;;;;;;5063923;28;20031;-81
2023/04/22 06:36:13;;;;;;;14.75;13.15;;;10.30;84.10;;;;;;5062852;28;20090;-81
2023/04/22 06:38:39;;;;;;;13.65;12.02;;;10.40;84.40;;;;;;5040350;28;20403;-81
2023/04/22 06:41:05;;;;;;;14.43;13.02;;;10.50;84.60;;;;;;5024564;28;20503;-81
2023/04/22 06:43:31;;;;;;;18.08;15.32;;;10.50;84.60;;;;;;5078104;28;20075;-81
2023/04/22 06:45:56;;;;;;;16.17;14.57;;;10.60;84.90;;;;;;5026525;28;20479;-81
2023/04/22 06:48:23;;;;;;;15.45;13.88;;;10.70;85.10;;;;;;5059031;28;20476;-81
2023/04/22 06:50:48;;;;;;;14.45;13.05;;;10.80;85.20;;;;;;5072019;28;20040;-81
2023/04/22 06:53:14;;;;;;;17.92;16.02;;;10.80;85.30;;;;;;5063080;28;20032;-81
2023/04/22 06:55:40;;;;;;;17.75;15.85;;;11.00;85.40;;;;;;5029362;28;20031;-82
2023/04/22 06:58:05;;;;;;;17.20;15.38;;;11.00;85.50;;;;;;5078258;28;20039;-80
2023/04/22 07:00:31;;;;;;;18.17;16.15;;;11.00;85.50;;;;;;5046248;28;20027;-80
2023/04/22 07:02:57;;;;;;;17.27;15.57;;;11.10;85.50;;;;;;5045850;28;20071;-80
2023/04/22 07:05:23;;;;;;;15.82;14.23;;;11.10;85.40;;;;;;5042197;28;20036;-81
2023/04/22 07:07:48;;;;;;;16.38;14.68;;;11.20;85.50;;;;;;5055613;28;20484;-81
2023/04/22 07:10:14;;;;;;;17.52;15.63;;;11.30;85.40;;;;;;5022620;28;20047;-81
2023/04/22 07:12:40;;;;;;;15.32;13.73;;;11.30;85.30;;;;;;5046834;28;20398;-81
2023/04/22 07:15:07;;;;;;;15.63;14.00;;;11.40;85.20;;;;;;5079253;28;20389;-80
2023/04/22 07:17:33;;;;;;;19.45;17.00;;;11.40;85.10;;;;;;5074854;28;20044;-81
2023/04/22 07:19:59;;;;;;;15.98;14.32;;;11.50;85.20;;;;;;5046593;28;20066;-81
2023/04/22 07:22:24;;;;;;;16.55;14.68;;;11.60;85.30;;;;;;5036804;28;20068;-81
2023/04/22 07:24:50;;;;;;;18.40;16.45;;;11.70;85.30;;;;;;5044417;28;20108;-81
2023/04/22 07:27:16;;;;;;;17.02;14.90;;;11.70;85.10;;;;;;5048499;28;20050;-81
2023/04/22 07:29:42;;;;;;;16.83;15.02;;;11.70;84.90;;;;;;5045965;28;20475;-82
2023/04/22 07:32:08;;;;;;;16.58;14.88;;;11.80;84.90;;;;;;5064584;28;20062;-80
2023/04/22 07:34:34;;;;;;;16.35;14.60;;;11.90;84.80;;;;;;5047989;28;20104;-77
2023/04/22 07:37:00;;;;;;;18.80;16.90;;;11.90;84.60;;;;;;5062469;28;20057;-85
2023/04/22 07:39:26;;;;;;;18.08;16.35;;;12.00;84.50;;;;;;5043215;28;20104;-84
2023/04/22 07:41:52;;;;;;;17.10;15.13;;;12.10;84.70;;;;;;5031804;28;20483;-84
2023/04/22 07:44:20;;;;;;;18.98;16.65;;;12.10;84.60;;;;;;5034206;28;20044;-85
2023/04/22 07:46:47;;;;;;;17.60;15.80;;;12.20;84.50;;;;;;5018150;28;20041;-85
2023/04/22 07:49:14;;;;;;;17.10;15.30;;;12.20;84.50;;;;;;5035911;28;20032;-87
2023/04/22 07:51:43;;;;;;;20.27;17.90;;;12.30;84.70;;;;;;5047874;28;20126;-87
2023/04/22 07:54:09;;;;;;;18.70;16.50;;;12.40;84.90;;;;;;5065732;28;20123;-85
2023/04/22 07:56:35;;;;;;;18.25;16.20;;;12.40;84.90;;;;;;5046700;28;20119;-82
2023/04/22 07:59:02;;;;;;;18.70;15.93;;;12.50;84.70;;;;;;5035644;28;20185;-82
2023/04/22 08:01:27;;;;;;;18.30;16.40;;;12.60;84.60;;;;;;5030334;28;20047;-84
2023/04/22 08:03:53;;;;;;;19.45;17.02;;;12.60;84.50;;;;;;5034835;28;20036;-84
2023/04/22 08:06:19;;;;;;;21.08;17.42;;;12.70;84.60;;;;;;5033618;28;20040;-84
2023/04/22 08:08:45;;;;;;;18.25;16.23;;;12.80;84.50;;;;;;5018917;28;20483;-81
2023/04/22 08:11:11;;;;;;;17.00;14.25;;;12.90;84.40;;;;;;5033381;28;20032;-83
2023/04/22 08:13:36;;;;;;;18.33;15.50;;;12.90;84.10;;;;;;5034762;28;20384;-84
2023/04/22 08:16:02;;;;;;;19.08;16.40;;;13.00;83.80;;;;;;5053275;28;20036;-78
2023/04/22 08:18:28;;;;;;;16.63;14.82;;;13.20;83.70;;;;;;5037463;28;20057;-85
2023/04/22 08:20:55;;;;;;;16.23;14.05;;;13.20;83.40;;;;;;5048723;28;20096;-88
2023/04/22 08:23:21;;;;;;;17.63;14.30;;;13.30;83.10;;;;;;5050530;28;20032;-84
2023/04/22 08:25:50;;;;;;;16.77;14.90;;;13.40;83.00;;;;;;5049486;28;20036;-84
2023/04/22 08:28:16;;;;;;;15.63;14.00;;;13.60;83.10;;;;;;5051331;28;20403;-85
2023/04/22 08:30:42;;;;;;;14.88;13.38;;;13.70;82.80;;;;;;5046995;28;20036;-87
2023/04/22 08:33:08;;;;;;;15.18;13.57;;;13.90;82.50;;;;;;5037103;28;20035;-85
2023/04/22 08:35:34;;;;;;;15.05;13.13;;;14.10;82.40;;;;;;5036498;28;20047;-86
2023/04/22 08:38:01;;;;;;;12.15;10.95;;;14.30;82.10;;;;;;5052396;28;20624;-86
2023/04/22 08:40:27;;;;;;;12.30;11.10;;;14.50;81.40;;;;;;5050013;28;20109;-86
2023/04/22 08:42:54;;;;;;;11.98;10.77;;;14.70;80.50;;;;;;5036304;28;20039;-86
2023/04/22 08:45:21;;;;;;;14.70;10.95;;;14.90;79.50;;;;;;5047721;28;20174;-86
2023/04/22 13:39:55;;;;;;;9.48;8.57;;;20.00;58.60;;;;;;5125043;27;20425;-82
2023/04/22 13:42:20;;;;;;;12.15;9.70;;;20.10;64.30;;;;;;5103402;28;20039;-83
2023/04/22 13:44:46;;;;;;;10.30;9.20;;;20.00;65.60;;;;;;5053123;28;20024;-82
2023/04/22 13:47:12;;;;;;;10.50;9.32;;;19.90;66.30;;;;;;5068685;28;20726;-81
2023/04/22 13:49:38;;;;;;;10.98;9.95;;;19.80;66.60;;;;;;5087019;28;20032;-81
2023/04/22 13:52:03;;;;;;;11.55;10.50;;;19.70;67.00;;;;;;5068946;28;20040;-81
2023/04/22 13:54:30;;;;;;;10.55;9.45;;;19.70;67.50;;;;;;5085978;28;20078;-81
2023/04/22 13:56:55;;;;;;;11.10;9.35;;;19.60;67.90;;;;;;5053501;28;20075;-82
2023/04/22 13:59:21;;;;;;;13.20;10.55;;;19.50;68.40;;;;;;5052900;28;20071;-82
2023/04/22 14:01:47;;;;;;;11.02;9.45;;;19.50;69.00;;;;;;5103211;28;20067;-82
2023/04/22 14:04:13;;;;;;;11.63;10.55;;;19.40;69.60;;;;;;5086029;28;20059;-82
2023/04/22 14:06:38;;;;;;;12.45;11.15;;;19.40;70.20;;;;;;5069168;28;20043;-84
2023/04/22 14:09:04;;;;;;;12.27;11.00;;;19.30;70.80;;;;;;5085739;28;20042;-82
2023/04/22 14:11:30;;;;;;;12.80;11.50;;;19.30;71.30;;;;;;5069088;28;20066;-81
2023/04/22 14:13:56;;;;;;;12.88;11.48;;;19.20;71.60;;;;;;5102778;28;20044;-82
2023/04/22 14:16:22;;;;;;;11.05;10.02;;;19.20;71.90;;;;;;5052369;28;20040;-82
2023/04/22 14:18:48;;;;;;;10.27;9.27;;;19.20;71.60;;;;;;5085993;28;20118;-82
2023/04/22 14:21:13;;;;;;;11.02;10.02;;;19.20;71.30;;;;;;5102860;28;20047;-80
2023/04/22 14:23:39;;;;;;;14.75;12.50;;;19.10;71.50;;;;;;5068947;28;20118;-82
2023/04/22 14:26:08;;;;;;;18.23;15.32;;;19.10;71.40;;;;;;5068361;28;20040;-82
2023/04/22 14:28:36;;;;;;;20.50;16.40;;;19.10;71.50;;;;;;5119520;27;20496;-81
2023/04/22 14:31:02;;;;;;;14.68;13.02;;;19.00;71.60;;;;;;5052386;28;20051;-81
2023/04/22 14:33:29;;;;;;;15.50;13.75;;;19.00;71.40;;;;;;5068727;28;20943;-81
2023/04/22 14:35:55;;;;;;;15.93;13.88;;;18.90;71.40;;;;;;5102696;28;20056;-81
2023/04/22 14:38:21;;;;;;;16.13;14.43;;;18.90;71.60;;;;;;5052105;28;20519;-81
2023/04/22 14:40:47;;;;;;;16.02;14.43;;;18.80;71.80;;;;;;5053974;28;20044;-81
2023/04/22 14:43:15;;;;;;;15.57;13.43;;;18.80;71.70;;;;;;5054851;28;20059;-78
2023/04/22 14:45:40;;;;;;;15.73;14.13;;;18.70;71.70;;;;;;5072068;28;20078;-78
2023/04/22 14:48:06;;;;;;;15.13;13.50;;;18.70;71.80;;;;;;5087983;28;20101;-79
2023/04/22 14:50:33;;;;;;;16.45;14.80;;;18.60;71.90;;;;;;5053329;28;20032;-78
2023/04/22 14:52:59;;;;;;;15.85;14.25;;;18.60;71.90;;;;;;5072087;28;20047;-79
2023/04/22 14:55:25;;;;;;;16.30;14.68;;;18.50;72.30;;;;;;5055069;28;20036;-79
2023/04/22 14:57:53;;;;;;;19.10;17.13;;;18.40;72.30;;;;;;5071716;28;20413;-79
2023/04/22 15:00:19;;;;;;;18.10;16.27;;;18.40;72.40;;;;;;5071892;28;20032;-79
2023/04/22 15:02:45;;;;;;;17.92;16.05;;;18.30;72.10;;;;;;5054538;28;20047;-79
2023/04/22 15:05:10;;;;;;;21.20;18.90;;;18.20;72.00;;;;;;5088363;28;20039;-78
2023/04/22 15:07:36;;;;;;;17.20;15.50;;;18.10;71.80;;;;;;5054290;28;20043;-78
2023/04/22 15:10:02;;;;;;;16.20;14.43;;;18.00;71.30;;;;;;5087171;28;20468;-78
2023/04/22 15:12:28;;;;;;;18.13;16.17;;;17.80;71.10;;;;;;5054245;28;20032;-77
2023/04/22 15:14:56;;;;;;;15.50;13.90;;;17.60;71.20;;;;;;5070129;28;20093;-79
2023/04/22 15:17:22;;;;;;;16.88;15.18;;;17.40;71.40;;;;;;5071071;28;20044;-78
2023/04/22 15:19:49;;;;;;;13.73;12.32;;;17.30;71.40;;;;;;5070669;28;20048;-78
2023/04/22 15:22:14;;;;;;;13.15;11.75;;;17.10;71.60;;;;;;5054695;28;20051;-78
2023/04/22 15:24:40;;;;;;;15.70;14.10;;;17.00;72.00;;;;;;5087342;28;20036;-78
2023/04/22 15:27:06;;;;;;;16.08;14.38;;;16.90;72.00;;;;;;5070184;28;20028;-78
2023/04/22 15:29:32;;;;;;;13.82;12.32;;;16.80;71.80;;;;;;5071013;28;21520;-78
2023/04/22 15:31:58;;;;;;;14.10;12.57;;;16.80;72.00;;;;;;5070050;28;20109;-78
2023/04/22 15:34:24;;;;;;;12.35;11.02;;;16.70;72.20;;;;;;5070224;28;20044;-78
2023/04/22 15:36:50;;;;;;;11.95;10.75;;;16.60;72.30;;;;;;5087177;28;20040;-78
2023/04/22 15:39:15;;;;;;;12.40;11.20;;;16.60;72.80;;;;;;5086742;28;20048;-78
2023/04/22 15:41:42;;;;;;;12.07;10.48;;;16.60;72.50;;;;;;5053751;28;20107;-78
2023/04/22 15:44:11;;;;;;;13.27;11.98;;;16.50;72.50;;;;;;5070726;28;20437;-78
2023/04/22 15:46:37;;;;;;;11.60;10.43;;;16.50;72.50;;;;;;5087311;28;20048;-78
2023/04/22 15:49:04;;;;;;;11.10;9.95;;;16.50;72.60;;;;;;5070440;28;20097;-77
2023/04/22 15:51:30;;;;;;;11.65;10.45;;;16.50;72.70;;;;;;5086423;28;20047;-77
2023/04/22 15:53:57;;;;;;;12.48;11.20;;;16.40;72.70;;;;;;5087209;28;20043;-77
2023/04/22 15:56:23;;;;;;;11.75;10.55;;;16.40;72.80;;;;;;5084203;28;20514;-77
2023/04/22 15:58:49;;;;;;;11.15;10.05;;;16.40;73.00;;;;;;5066381;28;20434;-77
2023/04/22 16:01:16;;;;;;;13.52;11.15;;;16.30;73.00;;;;;;5083153;28;20052;-77
2023/04/22 16:03:42;;;;;;;10.00;8.98;;;16.30;73.10;;;;;;5082526;28;20047;-78
2023/04/22 16:06:09;;;;;;;10.95;9.48;;;16.30;73.10;;;;;;5086641;28;20058;-78
2023/04/22 16:08:36;;;;;;;10.15;9.15;;;16.30;73.20;;;;;;5053661;28;20114;-77
2023/04/22 16:11:02;;;;;;;10.52;8.85;;;16.30;73.30;;;;;;5053273;28;20036;-78
2023/04/22 16:13:28;;;;;;;10.55;9.38;;;16.30;73.40;;;;;;5070295;28;20085;-79
2023/04/22 16:15:55;;;;;;;9.90;8.90;;;16.30;73.60;;;;;;5070879;28;20035;-79
2023/04/22 16:18:21;;;;;;;10.15;9.05;;;16.30;73.70;;;;;;5086969;28;20040;-79
2023/04/22 16:20:48;;;;;;;11.30;10.20;;;16.30;73.70;;;;;;5086622;28;20066;-79
2023/04/22 16:23:14;;;;;;;12.43;11.13;;;16.30;73.70;;;;;;5053897;28;20071;-79
2023/04/22 16:25:40;;;;;;;11.77;10.55;;;16.30;73.80;;;;;;5070531;28;20070;-79
2023/04/22 16:28:05;;;;;;;12.27;11.07;;;16.30;73.90;;;;;;5036874;28;20043;-79
2023/04/22 16:30:31;;;;;;;11.80;10.60;;;16.30;74.00;;;;;;5069964;28;20492;-79
2023/04/22 16:32:57;;;;;;;12.38;11.07;;;16.30;73.90;;;;;;5086625;28;20400;-79
2023/04/22 16:35:23;;;;;;;12.70;11.15;;;16.40;74.10;;;;;;5070309;28;20032;-79
2023/04/22 16:37:48;;;;;;;12.27;10.98;;;16.30;74.10;;;;;;5053391;28;20055;-79
2023/04/22 16:40:14;;;;;;;12.55;11.25;;;16.40;74.20;;;;;;5052349;28;20043;-78
2023/04/22 16:42:40;;;;;;;16.25;14.57;;;16.40;74.30;;;;;;5053069;28;20044;-79
2023/04/22 16:45:06;;;;;;;15.45;13.88;;;16.40;74.30;;;;;;5053844;28;20040;-78
2023/04/22 16:47:32;;;;;;;15.43;13.90;;;16.30;74.20;;;;;;5070264;28;20044;-78
2023/04/22 16:50:01;;;;;;;14.60;13.15;;;16.30;74.20;;;;;;5053048;28;20036;-79
2023/04/22 16:52:27;;;;;;;13.88;12.48;;;16.30;74.10;;;;;;5037220;28;20032;-79
2023/04/22 16:54:52;;;;;;;14.65;13.10;;;16.30;74.20;;;;;;5070042;28;20032;-79
2023/04/22 16:57:18;;;;;;;14.82;12.93;;;16.30;74.10;;;;;;5053740;28;20040;-80
2023/04/22 16:59:44;;;;;;;14.35;12.95;;;16.30;74.10;;;;;;5070170;28;20405;-79
2023/04/22 17:02:09;;;;;;;14.48;12.98;;;16.30;74.20;;;;;;5053058;28;20485;-79
2023/04/22 17:04:35;;;;;;;14.68;13.18;;;16.30;74.20;;;;;;5036706;28;20040;-79
2023/04/22 17:07:01;;;;;;;16.42;14.73;;;16.20;74.30;;;;;;5036398;28;20048;-79
2023/04/22 17:09:26;;;;;;;16.33;14.73;;;16.30;74.50;;;;;;5052654;28;20050;-78
2023/04/22 17:11:52;;;;;;;17.38;15.57;;;16.20;74.50;;;;;;5052996;28;20400;-78
2023/04/22 17:14:18;;;;;;;16.10;14.32;;;16.20;74.50;;;;;;5036400;28;20031;-79
2023/04/22 17:16:43;;;;;;;24.10;21.40;;;16.20;74.30;;;;;;5036655;28;20032;-79
2023/04/22 17:19:09;;;;;;;20.90;18.70;;;16.10;74.40;;;;;;5035909;28;20510;-79
2023/04/22 17:21:36;;;;;;;20.90;18.70;;;16.00;74.80;;;;;;5036387;28;20036;-79
2023/04/22 17:24:03;;;;;;;22.98;19.88;;;16.00;74.40;;;;;;5052829;28;20038;-78